This is the latest recevied weather packets stored in our database for station/object HS5SQI-2. If no packets are shown the sender has not sent any weather packets the latest 10 day(s).
| Time | Temp. | Humidity | Pressure | Rain* | Wind** | Luminosity | Snow |
|---|---|---|---|---|---|---|---|
| 1777951404 | 33.89° C | 63% | 1009 hPa | - | - | 0 W/m² | - |
| 1777950782 | 33.89° C | 66% | 1009 hPa | - | - | 0 W/m² | - |
| 1777950161 | 32.78° C | 68% | 1009 hPa | - | - | 0 W/m² | - |
| 1777949538 | 33.33° C | 67% | 1009 hPa | - | - | 0 W/m² | - |
| 1777948916 | 32.22° C | 70% | 1009 hPa | - | - | 0 W/m² | - |
| 1777948294 | 32.22° C | 71% | 1009 hPa | - | - | 0 W/m² | - |
| 1777947672 | 32.22° C | 69% | 1009 hPa | - | - | 0 W/m² | - |
| 1777947050 | 31.11° C | 71% | 1009 hPa | - | - | 0 W/m² | - |
| 1777946428 | 31.11° C | 71% | 1010 hPa | - | - | 0 W/m² | - |
| 1777945806 | 31.67° C | 70% | 1009 hPa | - | - | 0 W/m² | - |
| 1777945184 | 31.11° C | 71% | 1009 hPa | - | - | 0 W/m² | - |
| 1777944562 | 31.11° C | 73% | 1009 hPa | - | - | 0 W/m² | - |
| 1777943940 | 30.56° C | 76% | 1009 hPa | - | - | 0 W/m² | - |
| 1777943318 | 30.56° C | 76% | 1009 hPa | - | - | 0 W/m² | - |
| 1777942696 | 30° C | 77% | 1008 hPa | - | - | 0 W/m² | - |
| 1777942074 | 30° C | 78% | 1008 hPa | - | - | 0 W/m² | - |
| 1777941452 | 30° C | 78% | 1008 hPa | - | - | 0 W/m² | - |
| 1777940830 | 28.89° C | 80% | 1008 hPa | - | - | 0 W/m² | - |
| 1777940208 | 29.44° C | 80% | 1008 hPa | - | - | 0 W/m² | - |
| 1777939585 | 28.89° C | 81% | 1008 hPa | - | - | 0 W/m² | - |
| 1777938963 | 28.89° C | 81% | 1008 hPa | - | - | 0 W/m² | - |
| 1777938341 | 28.89° C | 82% | 1008 hPa | - | - | 0 W/m² | - |
| 1777937719 | 28.89° C | 82% | 1008 hPa | - | - | 0 W/m² | - |
| 1777937097 | 28.89° C | 81% | 1008 hPa | - | - | 0 W/m² | - |
| 1777936475 | 28.33° C | 82% | 1008 hPa | - | - | 0 W/m² | - |
* Rain since midnight (hover to see other rain measurements)
** Current wind speed in m/s (hover to see current wind gust speed)